Flight Track Log - Related Links

Times and Time Zones

All times are in EDT time to prevent confusion due to time zone crossing. See the DAL3672 flight status page for this flight to view local times or setup timezone preferences in your user account.

Time Position Orientation Groundspeed Altitude Reporting Facility
EDT Latitude Longitude Course Direction KTS MPH feet Rate Location/Type
Tue 10:18:57 AM 42.1994 -83.3522 94° East 155 178 1,500  Level FAA TRACON SMA TRACON (SMA)
Tue 10:19:18 AM 42.1836 -83.3508 176° South 171 197 2,300 1,902 Climbing FAA TRACON SMA TRACON (SMA)
Tue 10:19:38 AM 42.1672 -83.3478 172° South 193 222 2,800 2,100 Climbing FAA TRACON SMA TRACON (SMA)
Tue 10:19:58 AM 42.1458 -83.3436 172° South 208 239 3,700 1,800 Climbing FAA TRACON SMA TRACON (SMA)
Tue 10:20:18 AM 42.1325 -83.3408 171° South 231 266 4,000 1,538 Climbing FAA TRACON SMA TRACON (SMA)
Tue 10:20:37 AM 42.1083 -83.3308 163° South 268 308 4,700 2,400 Climbing FAA TRACON SMA TRACON (SMA)
Tue 10:20:58 AM 42.0942 -83.2983 120° Southeast 257 296 5,600 2,780 Climbing FAA TRACON SMA TRACON (SMA)
Tue 10:21:18 AM 42.0967 -83.2650 84° East 275 316 6,600 2,927 Climbing FAA TRACON SMA TRACON (SMA)
Tue 10:21:39 AM 42.1044 -83.2250 75° East 290 334 7,600 2,850 Climbing FAA TRACON SMA TRACON (SMA)
Tue 10:21:58 AM 42.1131 -83.1939 70° East 293 337 8,500 2,462 Climbing FAA TRACON SMA TRACON (SMA)
Tue 10:22:00 AM 42.3116 -82.7415 78° East  Level FlightAware Approximate
Tue 10:22:18 AM 42.1244 -83.1622 64° Northeast 318 366 9,200  Level FAA TRACON SMA TRACON (SMA)
Tue 10:22:38 AM 42.1356 -83.1308 64° Northeast 302 348 10,100 2,250 Climbing FAA TRACON SMA TRACON (SMA)
Tue 10:22:58 AM 42.1500 -83.0897 65° Northeast 329 379 10,700 1,050 Climbing FAA TRACON SMA TRACON (SMA)
Tue 10:23:00 AM 42.3333 -82.5860 90° East  Level FlightAware Approximate
Tue 10:23:18 AM 42.1622 -83.0539 65° Northeast 346 398 10,800  Level FAA TRACON SMA TRACON (SMA)
Tue 10:23:38 AM 42.1736 -83.0194 66° East 352 405 11,300 1,950 Climbing FAA TRACON SMA TRACON (SMA)
Tue 10:23:58 AM 42.1914 -82.9692 64° Northeast 362 417 12,100 2,100 Climbing FAA TRACON SMA TRACON (SMA)
Tue 10:24:00 AM 42.3660 -82.4369 94° East  Level FlightAware Approximate
Tue 10:24:18 AM 42.2050 -82.9308 64° Northeast 371 427 12,700  Level FAA TRACON SMA TRACON (SMA)
Tue 10:24:39 AM 42.2214 -82.8817 66° East 374 430 13,500 2,100 Climbing FAA TRACON SMA TRACON (SMA)
Tue 10:24:58 AM 42.2353 -82.8417 65° Northeast 379 436 14,100 2,000 Climbing FAA TRACON SMA TRACON (SMA)
Tue 10:25:18 AM 42.2494 -82.8019 64° Northeast 382 440 14,800 2,100 Climbing FAA TRACON SMA TRACON (SMA)
Tue 10:25:38 AM 42.2669 -82.7517 65° Northeast 384 442 15,500 1,800 Climbing FAA TRACON SMA TRACON (SMA)
Tue 10:25:58 AM 42.2806 -82.7108 66° East 386 444 16,000 1,500 Climbing FAA TRACON SMA TRACON (SMA)
Tue 10:26:18 AM 42.2947 -82.6697 65° Northeast 391 450 16,500 1,950 Climbing FAA TRACON SMA TRACON (SMA)
Tue 10:26:38 AM 42.3131 -82.6178 64° Northeast 396 456 17,300 1,846 Climbing FAA TRACON SMA TRACON (SMA)
Tue 10:26:57 AM 42.3264 -82.5803 64° Northeast 395 455 17,700 1,200 Climbing FAA TRACON SMA TRACON (SMA)
Tue 10:27:18 AM 42.3414 -82.5344 66° East 396 456 18,100 1,463 Climbing FAA TRACON SMA TRACON (SMA)
Tue 10:27:38 AM 42.3592 -82.4822 65° Northeast 398 458 18,700 1,350 Climbing FAA TRACON SMA TRACON (SMA)
Tue 10:27:58 AM 42.3672 -82.4417 75° East 396 456 19,000 1,050 Climbing FAA TRACON SMA TRACON (SMA)
Tue 10:28:18 AM 42.3650 -82.3914 93° East 395 455 19,400 1,200 Climbing FAA TRACON SMA TRACON (SMA)
Tue 10:28:38 AM 42.3639 -82.3331 91° East 403 464 19,800 900 Climbing FAA TRACON SMA TRACON (SMA)
Tue 10:28:58 AM 42.3636 -82.2889 90° East 407 468 20,000 878 Climbing FAA TRACON SMA TRACON (SMA)
Tue 10:29:19 AM 42.3592 -82.2389 97° East 408 470 20,400 1,050 Climbing FAA TRACON SMA TRACON (SMA)
Tue 10:29:38 AM 42.3583 -82.1911 91° East 411 473 20,700 837 Climbing FAA TRACON SMA TRACON (SMA)
Tue 10:30:02 AM 42.3519 -82.1200 97° East 395 455 21,000 929 Climbing Cleveland Center
Tue 10:31:02 AM 42.3478 -81.9569 92° East 413 475 22,000 1,100 Climbing Cleveland Center
Tue 10:32:02 AM 42.3392 -81.7967 94° East 434 499 23,200 1,250 Climbing Cleveland Center
Tue 10:33:02 AM 42.3325 -81.6364 93° East 428 493 24,500 1,200 Climbing Cleveland Center
Tue 10:34:02 AM 42.3253 -81.4761 93° East 428 493 25,600 1,050 Climbing Cleveland Center
Tue 10:35:02 AM 42.3161 -81.3103 94° East 428 493 26,600 1,000 Climbing Cleveland Center
Tue 10:36:02 AM 42.3086 -81.1503 94° East 428 493 27,600 950 Climbing Cleveland Center
Tue 10:37:02 AM 42.3011 -81.0042 94° East 428 493 28,500 800 Climbing Cleveland Center
Tue 10:38:02 AM 42.2931 -80.8469 94° East 428 493 29,200 700 Climbing Cleveland Center
Tue 10:39:02 AM 42.2831 -80.6786 95° East 428 493 29,900 700 Climbing Cleveland Center
Tue 10:40:02 AM 42.2747 -80.5158 94° East 433 498 30,600 550 Climbing Cleveland Center
Tue 10:41:02 AM 42.2661 -80.3531 94° East 433 498 31,000 200 Climbing Cleveland Center
Tue 10:42:02 AM 42.2553 -80.1653 94° East 439 505 31,000  Level Cleveland Center
Tue 10:43:02 AM 42.2439 -79.9914 95° East 459 528 31,000  Level Cleveland Center
Tue 10:44:02 AM 42.2347 -79.8372 95° East 459 528 31,000  Level Cleveland Center
Tue 10:45:02 AM 42.2231 -79.6550 95° East 465 535 31,000  Level Cleveland Center
Tue 10:46:02 AM 42.2111 -79.4786 95° East 470 541 31,000  Level Cleveland Center
Tue 10:47:02 AM 42.1989 -79.2967 95° East 480 552 31,000  Level Cleveland Center
Tue 10:48:02 AM 42.1925 -79.1147 93° East 480 552 31,000  Level Cleveland Center
Tue 10:49:02 AM 42.2131 -78.9347 81° East 475 547 31,000  Level Cleveland Center
Tue 10:50:02 AM 42.2372 -78.7433 80° East 475 547 31,000  Level Cleveland Center
Tue 10:51:02 AM 42.2611 -78.5631 80° East 481 554 31,000  Level Cleveland Center
Tue 10:52:02 AM 42.2831 -78.3856 80° East 481 554 31,000  Level Cleveland Center
Tue 10:53:02 AM 42.3044 -78.2108 81° East 481 554 31,000  Level Cleveland Center
Tue 10:54:02 AM 42.3258 -78.0331 81° East 481 554 31,000  Level Cleveland Center
Tue 10:55:02 AM 42.3467 -77.8553 81° East 481 554 31,000  Level Cleveland Center
Tue 10:56:02 AM 42.3675 -77.6800 81° East 476 548 31,000  Level Cleveland Center
Tue 10:57:02 AM 42.3878 -77.5047 81° East 471 542 31,000  Level Cleveland Center
Tue 10:58:51 AM 42.4211 -77.2053 81° East 471 542 31,000  Level Boston Center
Tue 10:59:51 AM 42.4386 -77.0350 82° East 471 542 31,000  Level Boston Center
Tue 11:00:51 AM 42.4581 -76.8647 81° East 465 535 31,000  Level Boston Center
Tue 11:01:51 AM 42.4772 -76.6914 81° East 465 535 31,000  Level Boston Center
Tue 11:02:51 AM 42.4961 -76.5181 82° East 465 535 31,000  Level Boston Center
Tue 11:03:51 AM 42.5125 -76.3417 83° East 465 535 31,000  Level Boston Center
Tue 11:04:51 AM 42.5336 -76.1542 81° East 465 535 31,000  Level Boston Center
Tue 11:05:51 AM 42.5514 -75.9831 82° East 465 535 31,000  Level Boston Center
Tue 11:06:51 AM 42.5672 -75.8092 83° East 465 535 31,000  Level Boston Center
Tue 11:07:51 AM 42.5847 -75.6353 82° East 460 529 31,000  Level Boston Center
Tue 11:08:51 AM 42.5994 -75.4808 83° East 460 529 31,000  Level Boston Center
Tue 11:09:51 AM 42.6144 -75.3067 83° East 460 529 31,000 -500 Level Boston Center
Tue 11:10:51 AM 42.6333 -75.1297 82° East 460 529 30,000 -1,000 Descending Boston Center
Tue 11:11:51 AM 42.6500 -74.9469 83° East 472 543 29,000 -500 Descending Boston Center
Tue 11:12:51 AM 42.6661 -74.7697 83° East 478 550 29,000  Level Boston Center
Tue 11:13:51 AM 42.6800 -74.6006 84° East 467 537 29,000  Level Boston Center
Tue 11:14:51 AM 42.6956 -74.4261 83° East 462 532 29,000  Level Boston Center
Tue 11:15:51 AM 42.7089 -74.2569 84° East 462 532 29,000  Level Boston Center
Tue 11:16:51 AM 42.7242 -74.0792 83° East 462 532 29,000  Level Boston Center
Tue 11:17:51 AM 42.7389 -73.9044 83° East 462 532 29,000  Level Boston Center
Tue 11:18:51 AM 42.7517 -73.7125 85° East 467 537 29,000  Level Boston Center
Tue 11:19:51 AM 42.7597 -73.5344 86° East 462 532 29,000  Level Boston Center
Tue 11:20:51 AM 42.7656 -73.3592 87° East 462 532 29,000 -850 Level Boston Center
Tue 11:21:51 AM 42.7711 -73.1811 88° East 462 532 27,300 -1,950 Descending Boston Center
Tue 11:22:51 AM 42.7739 -73.0283 89° East 457 526 25,100 -2,550 Descending Boston Center
Tue 11:23:51 AM 42.7789 -72.8558 88° East 457 526 22,200 -2,750 Descending Boston Center
Tue 11:24:51 AM 42.7814 -72.7061 89° East 430 495 19,600 -2,250 Descending Boston Center
Tue 11:25:51 AM 42.7881 -72.5647 86° East 392 451 17,700 -2,250 Descending Boston Center
Tue 11:26:51 AM 42.7900 -72.4286 89° East 368 423 15,100 -2,550 Descending Boston Center
Tue 11:27:51 AM 42.7964 -72.2958 86° East 355 409 12,600 -2,150 Descending Boston Center
Tue 11:28:51 AM 42.8128 -72.1797 79° East 322 371 10,800 -1,900 Descending Boston Center
Tue 11:29:51 AM 42.8292 -72.0608 79° East 289 333 8,800 -2,000 Descending Boston Center
Tue 11:30:51 AM 42.8164 -71.9703 101° East 269 310 6,800 -1,900 Descending Boston Center
Tue 11:31:51 AM 42.8011 -71.8686 102° East 258 297 5,000 -1,400 Descending Boston Center
Tue 11:32:51 AM 42.7903 -71.8008 102° East 224 258 4,000 -600 Descending Boston Center
Tue 11:33:51 AM 42.7878 -71.7214 92° East 186 214 3,800 -500 Descending Boston Center
Tue 11:34:51 AM 42.7853 -71.6622 93° East 180 207 3,000 -400 Descending Boston Center
Tue 11:35:51 AM 42.8078 -71.5994 64° Northeast 164 189 3,000  Level Boston Center

Login

Don't have an account? Register now (free) for customized features, flight alerts, and more!